• Join FlightAware (Why Join?)
  • Login
  • US Flag 
12:12AM EDT


 

Airport Tracker/Info


-or-


 

Live Flight TrackerFlight Track Log ✈ N276C ✈ 14-Sep-2013 ✈ KACK - KORH

Flight Track Log - Related Links

Times and Time Zones

All times are in EDT time to prevent confusion due to time zone crossing. See the N276C flight status page for this flight to view local times or setup timezone preferences in your user account.

Time Position Orientation Groundspeed Altitude Reporting Facility
EDT Latitude Longitude Course Direction KTS MPH feet Rate Location/Type
01:12PM 41.3950 -70.3078 298° West  Level Estimated
01:13PM 41.4041 -70.3584 284° West  Level FlightAware Approximate
01:14PM 41.4132 -70.4090 283° West  Level FlightAware Approximate
01:15PM 41.4223 -70.4596 283° West  Level FlightAware Approximate
01:16PM 41.4313 -70.5103 283° West  Level FlightAware Approximate
01:17PM 41.4403 -70.5609 283° West  Level FlightAware Approximate
01:17PM 41.3967 -70.5417 290° West 151 174 6,000  Level Boston Center
01:18PM 41.4657 -70.6005 294° West  Level Estimated
01:18PM 41.4142 -70.5911 295° West 147 169 6,000  Level Boston Center
01:19PM 41.4732 -70.6516 281° West  Level FlightAware Approximate
01:19PM 41.4336 -70.6403 298° West 150 173 6,000  Level Boston Center
01:20PM 41.4991 -70.6906 302° West  Level Estimated
01:20PM 41.4511 -70.6897 295° West 147 169 6,000  Level Boston Center
01:21PM 41.5121 -70.7397 290° West  Level FlightAware Approximate
01:21PM 41.4728 -70.7389 300° West 147 169 6,000  Level Boston Center
01:22PM 41.5252 -70.7889 290° West  Level FlightAware Approximate
01:23PM 41.5382 -70.8380 290° West  Level FlightAware Approximate
01:23PM 41.4922 -70.7939 295° West 147 169 6,000  Level Boston Center
01:24PM 41.5097 -70.8433 295° West 151 174 6,000  Level Boston Center
01:25PM 41.5269 -70.8956 294° West 146 168 6,000  Level Boston Center
01:26PM 41.5464 -70.9450 298° West 148 170 6,000  Level Boston Center
01:27PM 41.5617 -70.9892 295° West 147 169 6,000  Level Boston Center
01:28PM 41.5831 -71.0386 300° West 150 173 6,000  Level Boston Center
01:29PM 41.5961 -71.0883 289° West 149 171 6,000  Level Boston Center
01:30PM 41.6197 -71.1406 301° West 147 169 6,000  Level Boston Center
01:31PM 41.6350 -71.1903 292° West 148 170 6,000  Level Boston Center
01:32PM 41.6542 -71.2369 299° West 148 170 6,000  Level Boston Center
01:33PM 41.6733 -71.2922 295° West 145 167 6,000  Level Boston Center
01:34PM 41.6906 -71.3447 294° West 144 166 6,000  Level Boston Center
01:35PM 41.7078 -71.3861 299° West 145 167 6,000  Level Boston Center
01:36PM 41.7292 -71.4442 296° West 141 162 6,000  Level Boston Center
01:37PM 41.7544 -71.4856 309° West 145 167 6,000  Level Boston Center
01:38PM 41.7736 -71.5214 306° West 142 163 6,000  Level Boston Center
01:39PM 41.7989 -71.5628 309° West 144 166 6,000  Level Boston Center
01:40PM 41.8222 -71.6100 304° West 141 162 6,000  Level Boston Center
01:41PM 41.8475 -71.6514 309° West 140 161 6,000  Level Boston Center
01:42PM 41.8706 -71.6958 305° West 143 165 6,000  Level Boston Center
01:43PM 41.8939 -71.7400 305° West 139 160 6,000  Level Boston Center
01:43PM 41.9044 -71.7539 316° Northwest 139 160 6,000  Level Boston Center
01:44PM 41.9275 -71.7983 305° West 139 160 6,000  Level Boston Center
01:45PM 41.9550 -71.8456 308° West 140 161 6,000  Level Boston Center
01:46PM 41.9944 -71.8508 354° North 140 161 6,000 -240 Level Boston Center
01:47PM 42.0319 -71.8531 357° North 153 176 5,600 -480 Descending Boston Center
01:48PM 42.0653 -71.8219 35° Northeast 174 200 5,200 -480 Descending Boston Center
01:49PM 42.0900 -71.7769 53° Northeast 164 189 4,700 -600 Descending Boston Center
01:50PM 42.1189 -71.7347 47° Northeast 149 171 4,100 -600 Descending Boston Center
01:51PM 42.1522 -71.7261 11° North 131 151 3,500 -480 Descending Boston Center
01:52PM 42.1711 -71.7622 305° West 104 120 3,100 -480 Descending Boston Center
01:53PM 42.1942 -71.7900 318° Northwest 106 122 2,600 -600 Descending Boston Center
01:54PM 42.2175 -71.8206 316° Northwest 114 131 2,000 -540 Descending Boston Center
01:55PM 42.2406 -71.8456 321° Northwest 110 127 1,500 -480 Descending Boston Center
01:56PM 42.2594 -71.8678 319° Northwest 104 120 1,100 -240 Descending Boston Center
01:57PM 42.2697 -71.8761 329° Northwest 104 120 1,100  Level Boston Center